Time;durP1;ratioP1;P1;durP2;ratioP2;P2;SDS_P1;SDS_P2;PMS_P1;PMS_P2;Temp;Humidity;BMP_temperature;BMP_pressure;BME280_temperature;BME280_humidity;BME280_pressure;Samples;Min_cycle;Max_cycle;Signal;HPM_P1;HPM_P2
2021/01/25 00:01:33;558385.00;1.86;962.42;89026.00;0.30;154.63;;;;;5.30;1.00;;;;;;2269838;61;1253;-83
2021/01/25 00:03:59;641237.00;2.14;1105.48;83852.00;0.28;145.69;;;;;5.20;1.00;;;;;;2265005;61;931;-80
2021/01/25 00:06:26;637075.00;2.12;1098.28;93126.00;0.31;161.71;;;;;5.20;1.00;;;;;;2253153;61;911;-88
2021/01/25 00:09:01;621423.00;2.07;1071.22;90370.00;0.30;156.95;;;;;5.20;1.00;;;;;;2246560;61;840;-86
2021/01/25 00:11:28;406891.00;1.36;701.65;0.00;0.00;0.62;;;;;5.00;1.00;;;;;;2243368;61;919;-89
2021/01/25 00:13:55;355284.00;1.18;612.94;0.00;0.00;0.62;;;;;4.60;1.00;;;;;;2243376;61;927;-89
2021/01/25 00:16:23;554414.00;1.85;955.57;18483.00;0.06;32.64;;;;;4.40;1.00;;;;;;2251281;61;814;-90
2021/01/25 00:18:51;404086.00;1.35;696.83;0.00;0.00;0.62;;;;;3.90;1.00;;;;;;2253034;61;1939;-87
2021/01/25 00:21:17;333300.00;1.11;575.16;0.00;0.00;0.62;;;;;4.00;1.00;;;;;;2251094;61;900;-82
2021/01/25 00:23:45;580050.00;1.93;999.79;40403.00;0.13;70.59;;;;;3.90;1.00;;;;;;2262609;61;1361;-84
2021/01/25 00:26:13;305374.00;1.02;527.16;0.00;0.00;0.62;;;;;4.60;1.00;;;;;;2269149;61;889;-84
2021/01/25 00:28:40;368768.00;1.23;636.12;2523.00;0.01;4.99;;;;;5.70;1.00;;;;;;2262581;61;897;-89
2021/01/25 00:31:13;343322.00;1.14;592.38;0.00;0.00;0.62;;;;;6.10;1.00;;;;;;2265886;61;795;-91
2021/01/25 00:33:40;1333225.00;4.44;2333.04;0.00;0.00;0.62;;;;;6.80;1.00;;;;;;2265228;61;1392;-82
2021/01/25 00:38:35;130040.00;0.43;225.40;0.00;0.00;0.62;;;;;7.40;1.00;;;;;;2283473;61;1883;-83
2021/01/25 00:41:01;215903.00;0.72;373.29;0.00;0.00;0.62;;;;;7.80;1.00;;;;;;2268288;61;1045;-82
2021/01/25 00:43:29;196603.00;0.66;340.08;0.00;0.00;0.62;;;;;7.90;1.00;;;;;;2268048;61;1354;-83
2021/01/25 00:45:55;244060.00;0.81;421.73;35036.00;0.12;61.30;;;;;7.20;1.00;;;;;;2264270;61;1053;-83
2021/01/25 00:48:22;266621.00;0.89;460.53;0.00;0.00;0.62;;;;;7.20;1.00;;;;;;2264133;61;1041;-83
2021/01/25 00:50:51;308692.00;1.03;532.86;0.00;0.00;0.62;;;;;6.40;1.00;;;;;;2263976;61;1065;-83
2021/01/25 00:53:19;47190.00;0.16;82.33;0.00;0.00;0.62;;;;;6.80;1.00;;;;;;2261131;61;1487;-83
2021/01/25 00:56:20;100952.00;0.34;175.22;0.00;0.00;0.62;;;;;6.70;1.00;;;;;;2264452;61;1060;-83
2021/01/25 00:58:47;294563.00;0.98;508.57;80145.00;0.27;139.29;;;;;7.50;1.00;;;;;;2262591;61;2005;-82
2021/01/25 01:01:14;27916.00;0.09;48.98;0.00;0.00;0.62;;;;;8.10;1.00;;;;;;2264169;61;982;-82
2021/01/25 01:03:41;42769.00;0.14;74.68;0.00;0.00;0.62;;;;;8.50;1.00;;;;;;2256299;61;1257;-85
2021/01/25 01:06:07;0.00;0.00;0.62;0.00;0.00;0.62;;;;;8.90;1.00;;;;;;2262584;61;1013;-83
2021/01/25 01:08:34;383063.00;1.28;660.69;57742.00;0.19;100.57;;;;;9.00;1.00;;;;;;2260203;61;933;-82
2021/01/25 01:11:01;25912.00;0.09;45.51;0.00;0.00;0.62;;;;;9.10;1.00;;;;;;2260418;61;1084;-83
2021/01/25 01:13:27;44635.00;0.15;77.91;0.00;0.00;0.62;;;;;8.90;1.00;;;;;;2260408;61;1387;-83
2021/01/25 01:15:56;1191.00;0.00;2.68;0.00;0.00;0.62;;;;;9.10;1.00;;;;;;2261729;61;1033;-84
2021/01/25 01:18:22;140456.00;0.47;243.36;0.00;0.00;0.62;;;;;9.20;1.00;;;;;;2272437;61;2010;-82
2021/01/25 01:20:48;0.00;0.00;0.62;0.00;0.00;0.62;;;;;9.20;1.00;;;;;;2272508;61;1026;-82
2021/01/25 01:23:15;33857.00;0.11;59.26;0.00;0.00;0.62;;;;;9.10;1.00;;;;;;2263975;61;1349;-84
2021/01/25 01:25:42;52057.00;0.17;90.74;0.00;0.00;0.62;;;;;9.40;1.00;;;;;;2264394;61;999;-83
2021/01/25 01:28:09;129910.00;0.43;225.17;0.00;0.00;0.62;;;;;9.70;1.00;;;;;;2264043;61;1044;-84
2021/01/25 01:30:35;34842.00;0.12;60.96;0.00;0.00;0.62;;;;;9.80;1.00;;;;;;2257138;61;1001;-82
2021/01/25 01:33:03;33709.00;0.11;59.00;0.00;0.00;0.62;;;;;9.90;1.00;;;;;;2261653;61;1464;-83
2021/01/25 01:35:29;40446.00;0.13;70.66;0.00;0.00;0.62;;;;;9.80;1.00;;;;;;2268277;61;947;-82
2021/01/25 01:37:56;23584.00;0.08;41.48;0.00;0.00;0.62;;;;;9.30;1.00;;;;;;2263995;61;1924;-83
2021/01/25 01:40:22;41246.00;0.14;72.04;0.00;0.00;0.62;;;;;9.30;1.00;;;;;;2264272;61;949;-81
2021/01/25 01:42:49;41362.00;0.14;72.24;0.00;0.00;0.62;;;;;9.20;1.00;;;;;;2260861;61;1353;-83
2021/01/25 01:45:15;54653.00;0.18;95.23;0.00;0.00;0.62;;;;;8.80;1.00;;;;;;2264321;61;1017;-84
2021/01/25 01:47:42;0.00;0.00;0.62;0.00;0.00;0.62;;;;;8.80;1.00;;;;;;2259493;61;1089;-81
2021/01/25 01:50:15;27631.00;0.09;48.48;0.00;0.00;0.62;;;;;8.80;1.00;;;;;;2259111;61;1002;-84
2021/01/25 01:52:41;0.00;0.00;0.62;0.00;0.00;0.62;;;;;9.10;1.00;;;;;;2260200;61;1483;-83
2021/01/25 01:55:09;0.00;0.00;0.62;0.00;0.00;0.62;;;;;9.20;1.00;;;;;;2260018;61;1351;-83
2021/01/25 01:57:37;0.00;0.00;0.62;0.00;0.00;0.62;;;;;9.70;1.00;;;;;;2260642;61;1979;-84
2021/01/25 02:00:05;2224.00;0.01;4.47;0.00;0.00;0.62;;;;;9.80;1.00;;;;;;2264054;61;977;-84
2021/01/25 02:02:32;8080.00;0.03;14.62;0.00;0.00;0.62;;;;;9.00;1.00;;;;;;2265330;61;1448;-83
2021/01/25 02:04:59;181671.00;0.61;314.37;15002.00;0.05;26.61;;;;;8.50;1.00;;;;;;2263057;61;971;-86
2021/01/25 02:07:28;116971192.00;389.90;64827764.00;0.00;0.00;0.62;;;;;7.50;1.00;;;;;;2268066;61;981;-83
2021/01/25 02:09:56;18532.00;0.06;32.73;0.00;0.00;0.62;;;;;8.20;1.00;;;;;;2267306;61;1033;-84
2021/01/25 02:12:23;0.00;0.00;0.62;0.00;0.00;0.62;;;;;8.60;1.00;;;;;;2272343;61;1323;-84
2021/01/25 02:14:50;111883.00;0.37;194.08;0.00;0.00;0.62;;;;;8.50;1.00;;;;;;2264985;61;1028;-83
2021/01/25 02:17:17;0.00;0.00;0.62;0.00;0.00;0.62;;;;;8.40;1.00;;;;;;2268146;61;1977;-84
2021/01/25 02:19:53;0.00;0.00;0.62;0.00;0.00;0.62;;;;;8.70;1.00;;;;;;2259915;61;1159;-84
2021/01/25 02:22:55;59855.00;0.20;104.23;0.00;0.00;0.62;;;;;8.60;1.00;;;;;;2260480;61;1322;-81
2021/01/25 02:25:34;272797.00;0.91;471.15;0.00;0.00;0.62;;;;;8.90;1.00;;;;;;2255793;61;1050;-84
2021/01/25 02:28:02;16905.00;0.06;29.91;0.00;0.00;0.62;;;;;9.10;1.00;;;;;;2264339;61;1036;-84
2021/01/25 02:30:30;891.00;0.00;2.16;0.00;0.00;0.62;;;;;9.00;1.00;;;;;;2260800;61;1149;-84
2021/01/25 02:32:59;50371.00;0.17;87.83;0.00;0.00;0.62;;;;;8.10;1.00;;;;;;2261027;61;1461;-83
2021/01/25 02:37:55;83687.00;0.28;145.41;0.00;0.00;0.62;;;;;8.50;1.00;;;;;;2282608;60;1966;-83
2021/01/25 02:40:23;19344.00;0.06;34.13;0.00;0.00;0.62;;;;;8.50;1.00;;;;;;2276470;61;1135;-83
2021/01/25 02:42:53;0.00;0.00;0.62;0.00;0.00;0.62;;;;;8.90;1.00;;;;;;2268226;61;1239;-84
2021/01/25 02:45:23;53482.00;0.18;93.21;0.00;0.00;0.62;;;;;8.80;1.00;;;;;;2264952;61;1092;-84
2021/01/25 02:47:50;84318.00;0.28;146.50;0.00;0.00;0.62;;;;;8.30;1.00;;;;;;2268471;61;1033;-83
2021/01/25 02:50:17;13233.00;0.04;23.55;0.00;0.00;0.62;;;;;8.20;1.00;;;;;;2267324;61;1041;-84
2021/01/25 02:52:44;17541.00;0.06;31.01;0.00;0.00;0.62;;;;;8.70;1.00;;;;;;2264019;61;1376;-83
2021/01/25 02:55:11;0.00;0.00;0.62;0.00;0.00;0.62;;;;;9.10;1.00;;;;;;2264191;61;1131;-85
2021/01/25 03:00:08;3248.00;0.01;6.25;0.00;0.00;0.62;;;;;9.60;1.00;;;;;;2279372;61;1298;-87
2021/01/25 03:02:36;24193.00;0.08;42.53;0.00;0.00;0.62;;;;;9.70;1.00;;;;;;2268205;61;1217;-83
2021/01/25 03:05:07;0.00;0.00;0.62;0.00;0.00;0.62;;;;;9.80;1.00;;;;;;2281553;61;1017;-84
2021/01/25 03:10:03;12950.00;0.04;23.06;0.00;0.00;0.62;;;;;9.80;1.00;;;;;;2284140;61;1310;-87
2021/01/25 03:12:31;0.00;0.00;0.62;0.00;0.00;0.62;;;;;9.80;1.00;;;;;;2286209;61;1430;-90
2021/01/25 03:14:58;203362.00;0.68;351.71;32600.00;0.11;57.08;;;;;9.80;1.00;;;;;;2275117;60;974;-85
2021/01/25 03:17:25;0.00;0.00;0.62;0.00;0.00;0.62;;;;;9.50;1.00;;;;;;2285614;60;1909;-86
2021/01/25 03:19:52;58476.00;0.19;101.84;0.00;0.00;0.62;;;;;9.40;1.00;;;;;;2272965;61;1057;-81
2021/01/25 03:22:20;53734.00;0.18;93.64;0.00;0.00;0.62;;;;;9.60;1.00;;;;;;2266483;61;1311;-85
2021/01/25 03:24:46;262527.00;0.88;453.49;76775.00;0.26;133.47;;;;;9.50;1.00;;;;;;2260824;61;1146;-84
2021/01/25 03:27:12;46900.00;0.16;81.82;0.00;0.00;0.62;;;;;9.60;1.00;;;;;;2251242;61;1137;-85
2021/01/25 03:29:39;0.00;0.00;0.62;0.00;0.00;0.62;;;;;9.80;1.00;;;;;;2249003;61;1054;-82
2021/01/25 03:32:06;0.00;0.00;0.62;0.00;0.00;0.62;;;;;9.60;1.00;;;;;;2248882;61;1424;-83
2021/01/25 03:34:32;10492.00;0.03;18.80;0.00;0.00;0.62;;;;;8.90;1.00;;;;;;2249021;61;1060;-84
2021/01/25 03:37:00;58123.00;0.19;101.23;0.00;0.00;0.62;;;;;8.60;1.00;;;;;;2243683;61;1993;-85
2021/01/25 03:39:27;0.00;0.00;0.62;0.00;0.00;0.62;;;;;7.70;1.00;;;;;;2250975;61;1084;-82
2021/01/25 03:41:53;41677.00;0.14;72.79;0.00;0.00;0.62;;;;;7.90;1.00;;;;;;2255580;61;1405;-83
2021/01/25 03:44:20;0.00;0.00;0.62;0.00;0.00;0.62;;;;;7.40;1.00;;;;;;2269597;61;1163;-83
2021/01/25 03:46:46;53767.00;0.18;93.70;0.00;0.00;0.62;;;;;7.30;1.00;;;;;;2270808;60;1019;-82
2021/01/25 03:49:14;0.00;0.00;0.62;0.00;0.00;0.62;;;;;6.80;1.00;;;;;;2278416;60;991;-83
2021/01/25 03:51:41;307826.00;1.03;531.37;31855.00;0.11;55.79;;;;;6.60;1.00;;;;;;2275229;60;1523;-84
2021/01/25 03:54:10;75614.00;0.25;131.46;0.00;0.00;0.62;;;;;6.60;1.00;;;;;;2278341;60;1084;-84
2021/01/25 03:56:36;122862.00;0.41;213.02;0.00;0.00;0.62;;;;;6.60;1.00;;;;;;2276921;61;1136;-83
2021/01/25 03:59:03;64783.00;0.22;112.74;0.00;0.00;0.62;;;;;6.60;1.00;;;;;;2276985;61;1987;-84
2021/01/25 04:01:30;0.00;0.00;0.62;0.00;0.00;0.62;;;;;6.70;1.00;;;;;;2268788;61;982;-83
2021/01/25 04:03:56;0.00;0.00;0.62;0.00;0.00;0.62;;;;;7.10;1.00;;;;;;2268514;61;1135;-83
2021/01/25 04:06:23;0.00;0.00;0.62;0.00;0.00;0.62;;;;;7.60;1.00;;;;;;2268797;61;1038;-85
2021/01/25 04:08:49;177182.00;0.59;306.64;0.00;0.00;0.62;;;;;7.80;1.00;;;;;;2268711;61;1033;-84
2021/01/25 04:11:17;57916.00;0.19;100.87;0.00;0.00;0.62;;;;;7.60;1.00;;;;;;2260441;61;988;-84
2021/01/25 04:13:44;27475.00;0.09;48.21;0.00;0.00;0.62;;;;;7.70;1.00;;;;;;2261516;61;1449;-83
2021/01/25 04:16:11;26086.00;0.09;45.81;0.00;0.00;0.62;;;;;7.90;1.00;;;;;;2265120;61;1072;-85
2021/01/25 04:18:38;0.00;0.00;0.62;0.00;0.00;0.62;;;;;8.00;1.00;;;;;;2269259;61;1915;-84
2021/01/25 04:21:05;4645.00;0.02;8.67;0.00;0.00;0.62;;;;;8.30;1.00;;;;;;2271940;61;1114;-83
2021/01/25 04:23:32;33996.00;0.11;59.50;0.00;0.00;0.62;;;;;8.90;1.00;;;;;;2269703;61;1328;-84
2021/01/25 04:25:58;0.00;0.00;0.62;0.00;0.00;0.62;;;;;9.00;1.00;;;;;;2269258;61;1167;-84
2021/01/25 04:28:26;0.00;0.00;0.62;0.00;0.00;0.62;;;;;9.40;1.00;;;;;;2274443;60;1049;-83
2021/01/25 04:30:52;30593.00;0.10;53.61;0.00;0.00;0.62;;;;;9.50;1.00;;;;;;2278220;60;1135;-84
2021/01/25 04:33:19;46046.00;0.15;80.35;0.00;0.00;0.62;;;;;9.70;1.00;;;;;;2272385;61;1318;-84
2021/01/25 04:35:45;22816.00;0.08;40.15;0.00;0.00;0.62;;;;;9.90;1.00;;;;;;2262736;61;993;-85
2021/01/25 04:38:12;40342.00;0.13;70.48;0.00;0.00;0.62;;;;;9.90;1.00;;;;;;2264436;61;2001;-88
2021/01/25 04:40:38;36207.00;0.12;63.33;0.00;0.00;0.62;;;;;9.90;1.00;;;;;;2264798;61;958;-85
2021/01/25 04:43:05;94737.00;0.32;164.49;0.00;0.00;0.62;;;;;9.70;1.00;;;;;;2264713;61;1385;-85
2021/01/25 04:45:32;0.00;0.00;0.62;0.00;0.00;0.62;;;;;9.70;1.00;;;;;;2264588;61;1096;-85
2021/01/25 04:48:00;32646.00;0.11;57.16;0.00;0.00;0.62;;;;;9.80;1.00;;;;;;2261382;61;1026;-85
2021/01/25 04:50:27;29333.00;0.10;51.43;0.00;0.00;0.62;;;;;10.00;1.00;;;;;;2261770;61;1040;-85
2021/01/25 04:52:54;5107.00;0.02;9.47;0.00;0.00;0.62;;;;;10.10;1.00;;;;;;2269175;61;1453;-85
2021/01/25 04:55:21;122612.00;0.41;212.59;15390.00;0.05;27.29;;;;;10.00;1.00;;;;;;2269563;61;977;-81
2021/01/25 04:57:50;135490.00;0.45;234.80;0.00;0.00;0.62;;;;;9.70;1.00;;;;;;2264105;61;1915;-82
2021/01/25 05:00:20;0.00;0.00;0.62;0.00;0.00;0.62;;;;;9.90;1.00;;;;;;2263992;61;1098;-85
2021/01/25 05:02:47;0.00;0.00;0.62;0.00;0.00;0.62;;;;;10.00;1.00;;;;;;2257783;61;1468;-85
2021/01/25 05:05:14;0.00;0.00;0.62;0.00;0.00;0.62;;;;;10.20;1.00;;;;;;2260496;61;1147;-85
2021/01/25 05:07:42;115507.00;0.39;200.33;41413.00;0.14;72.33;;;;;10.20;1.00;;;;;;2257198;61;1057;-83
2021/01/25 05:10:11;0.00;0.00;0.62;0.00;0.00;0.62;;;;;10.10;1.00;;;;;;2248387;61;1157;-83
2021/01/25 05:12:45;12194.00;0.04;21.75;0.00;0.00;0.62;;;;;9.60;1.00;;;;;;2241968;61;1367;-84
2021/01/25 05:15:24;0.00;0.00;0.62;0.00;0.00;0.62;;;;;9.60;1.00;;;;;;2249517;61;1022;-85
2021/01/25 05:41:09;120395.00;0.40;208.76;0.00;0.00;0.62;;;;;10.20;1.00;;;;;;2287629;61;986;-88
2021/01/25 05:43:35;259376.00;0.86;448.08;0.00;0.00;0.62;;;;;10.10;1.00;;;;;;2276949;61;1322;-88
2021/01/25 05:46:09;465176.00;1.55;801.89;0.00;0.00;0.62;;;;;10.00;1.00;;;;;;2267108;61;881;-89
2021/01/25 05:48:36;95689.00;0.32;166.13;0.00;0.00;0.62;;;;;10.00;1.00;;;;;;2272901;61;867;-89
2021/01/25 05:51:14;270243.00;0.90;466.76;0.00;0.00;0.62;;;;;9.90;1.00;;;;;;2264766;61;926;-85
2021/01/25 06:01:22;47947.00;0.16;83.64;0.00;0.00;0.62;;;;;9.60;1.00;;;;;;2286983;61;997;-86
2021/01/25 06:03:49;69167.00;0.23;120.32;0.00;0.00;0.62;;;;;9.30;1.00;;;;;;2276723;61;1404;-87
2021/01/25 06:06:23;144886.00;0.48;250.99;3245.00;0.01;6.24;;;;;8.50;1.00;;;;;;2276880;61;902;-89
2021/01/25 06:09:04;0.00;0.00;0.62;0.00;0.00;0.62;;;;;7.50;1.00;;;;;;2276865;61;930;-89
2021/01/25 06:11:32;115295.00;0.38;199.97;0.00;0.00;0.62;;;;;7.60;1.00;;;;;;2263874;61;963;-86
2021/01/25 06:14:00;32092.00;0.11;56.20;0.00;0.00;0.62;;;;;7.30;1.00;;;;;;2508599;39;3939;31
2021/01/25 06:16:29;257329.00;0.86;444.56;0.00;0.00;0.62;;;;;7.20;1.00;;;;;;2274991;61;1323;-87
2021/01/25 06:19:00;95521.00;0.32;165.84;0.00;0.00;0.62;;;;;7.10;1.00;;;;;;2264812;61;1994;-88
2021/01/25 06:21:30;180621.00;0.60;312.56;0.00;0.00;0.62;;;;;7.30;1.00;;;;;;2264807;61;791;-89
2021/01/25 06:24:01;361361.00;1.20;623.39;71633.00;0.24;124.58;;;;;7.40;1.00;;;;;;2260857;61;907;-90
2021/01/25 06:26:30;8019.00;0.03;14.52;0.00;0.00;0.62;;;;;7.60;1.00;;;;;;2260860;61;802;-89
2021/01/25 06:29:01;33361.00;0.11;58.40;0.00;0.00;0.62;;;;;7.70;1.00;;;;;;2256812;61;846;-90
2021/01/25 06:31:29;176765.00;0.59;305.92;23007.00;0.08;40.48;;;;;7.60;1.00;;;;;;2244918;62;922;-90
2021/01/25 06:34:01;36899.00;0.12;64.52;0.00;0.00;0.62;;;;;7.70;1.00;;;;;;2245169;62;1550;-86
2021/01/25 06:38:59;27488.00;0.09;48.23;0.00;0.00;0.62;;;;;8.00;1.00;;;;;;2286981;60;1948;-88
2021/01/25 06:41:35;50106.00;0.17;87.37;0.00;0.00;0.62;;;;;8.20;1.00;;;;;;2273356;61;861;-87
2021/01/25 06:46:33;68805.00;0.23;119.70;0.00;0.00;0.62;;;;;8.50;1.00;;;;;;2279653;61;1345;-88
2021/01/25 06:49:00;161383.00;0.54;279.42;0.00;0.00;0.62;;;;;8.50;1.00;;;;;;2278070;61;511;-90
2021/01/25 06:54:01;16134.00;0.05;28.57;0.00;0.00;0.62;;;;;9.20;1.00;;;;;;2287568;61;1298;-88
2021/01/25 06:56:43;24978.00;0.08;43.89;0.00;0.00;0.62;;;;;9.20;1.00;;;;;;2277531;61;877;-91
2021/01/25 06:59:11;18139.00;0.06;32.05;0.00;0.00;0.62;;;;;9.10;1.00;;;;;;2269395;61;1923;-90
2021/01/25 07:01:41;135350.00;0.45;234.55;67729.00;0.23;117.84;;;;;8.60;1.00;;;;;;2265261;61;1356;-90
2021/01/25 07:04:14;25177.00;0.08;44.23;0.00;0.00;0.62;;;;;8.20;1.00;;;;;;2265422;61;858;-91
2021/01/25 07:06:47;80634.00;0.27;140.13;13181.00;0.04;23.46;;;;;8.30;1.00;;;;;;2253386;61;902;-90
2021/01/25 07:09:27;193852.00;0.65;335.34;0.00;0.00;0.62;;;;;8.20;1.00;;;;;;2253239;61;935;-91
2021/01/25 07:11:57;72971.00;0.24;126.89;0.00;0.00;0.62;;;;;8.40;1.00;;;;;;2253300;61;1283;-89
2021/01/25 07:38:19;309194.00;1.03;533.72;0.00;0.00;0.62;;;;;10.50;1.00;;;;;;2309101;55;3654;31
2021/01/25 08:36:29;249347.00;0.83;430.83;0.00;0.00;0.62;;;;;8.60;1.00;;;;;;2278551;61;1389;-86
2021/01/25 08:51:31;117168.00;0.39;203.20;0.00;0.00;0.62;;;;;9.80;1.00;;;;;;2278655;61;1212;-85
2021/01/25 08:56:35;204819.00;0.68;354.22;30329.00;0.10;53.15;;;;;8.90;1.00;;;;;;2277940;61;1436;-85
2021/01/25 09:09:04;160081.00;0.53;277.18;0.00;0.00;0.62;;;;;10.30;1.00;;;;;;2278932;61;1180;-85
2021/01/25 09:11:30;40517.00;0.14;70.78;0.00;0.00;0.62;;;;;10.50;1.00;;;;;;2272530;61;963;-85
2021/01/25 09:19:03;73461.00;0.24;127.74;0.00;0.00;0.62;;;;;10.80;1.00;;;;;;2274361;61;1895;-85
2021/01/25 09:26:28;152099.00;0.51;263.42;45673.00;0.15;79.70;;;;;11.20;1.00;;;;;;2278452;61;1189;-86
2021/01/25 11:57:21;580781.00;1.94;1001.05;105590.00;0.35;183.22;;;;;8.30;1.00;;;;;;2270984;61;1138;-85
2021/01/25 11:59:47;721936.00;2.41;1245.30;123667.00;0.41;214.41;;;;;8.70;1.00;;;;;;2269400;61;1986;-85
2021/01/25 12:02:14;429287.00;1.43;740.16;108642.00;0.36;188.49;;;;;8.70;1.00;;;;;;2269420;61;1339;-83
2021/01/25 12:04:40;592163.00;1.97;1020.69;87420.00;0.29;151.85;;;;;9.00;1.00;;;;;;2256790;61;965;-84
2021/01/25 12:07:07;419644.00;1.40;723.58;86869.00;0.29;150.90;;;;;9.60;1.00;;;;;;2252760;61;935;-82
2021/01/25 12:09:33;588506.00;1.96;1014.38;90005.00;0.30;156.32;;;;;9.70;1.00;;;;;;2252902;61;1038;-84
2021/01/25 12:12:01;414903.00;1.38;715.43;83626.00;0.28;145.30;;;;;10.20;1.00;;;;;;2246471;61;1518;-86
2021/01/25 12:14:29;522471.00;1.74;900.52;92131.00;0.31;159.99;;;;;10.70;1.00;;;;;;2252933;61;946;-87
2021/01/25 12:16:55;695802.00;2.32;1199.96;102602.00;0.34;178.06;;;;;10.70;1.00;;;;;;2248871;61;977;-82
2021/01/25 12:19:22;499498.00;1.66;860.96;76877.00;0.26;133.64;;;;;10.70;1.00;;;;;;2244912;61;1991;-84
2021/01/25 12:21:48;486898.00;1.62;839.27;90924.00;0.30;157.90;;;;;10.80;1.00;;;;;;2246210;61;1970;-83
2021/01/25 12:24:15;459723.00;1.53;792.51;100280.00;0.33;174.06;;;;;11.10;1.00;;;;;;2257301;61;982;-84
2021/01/25 12:26:42;602105.00;2.01;1037.85;92802.00;0.31;161.15;;;;;11.50;1.00;;;;;;2260986;61;1142;-82
2021/01/25 12:29:08;390128.00;1.30;672.83;86189.00;0.29;149.73;;;;;11.60;1.00;;;;;;2260980;61;1093;-84
2021/01/25 12:31:36;546913.00;1.82;942.64;89005.00;0.30;154.59;;;;;11.80;1.00;;;;;;2260608;61;1353;-81
2021/01/25 13:48:23;49791.00;0.17;86.82;0.00;0.00;0.62;;;;;8.30;1.00;;;;;;2512209;55;3635;31
2021/01/25 14:30:40;16385.00;0.05;29.01;0.00;0.00;0.62;;;;;8.60;1.00;;;;;;2275012;61;912;-88
2021/01/25 22:02:11;84107.00;0.28;146.13;0.00;0.00;0.62;;;;;7.90;1.00;;;;;;888388;39;3305;31
